sensor_id;sensor_type;location;lat;lon;timestamp;temperature;humidity
33741;DHT22;20065;48.380;10.892;2023-02-13T00:02:06;2.90;99.90
33741;DHT22;20065;48.380;10.892;2023-02-13T00:04:53;2.90;99.90
33741;DHT22;20065;48.380;10.892;2023-02-13T00:07:39;2.90;99.90
33741;DHT22;20065;48.380;10.892;2023-02-13T00:10:25;2.90;99.90
33741;DHT22;20065;48.380;10.892;2023-02-13T00:13:11;2.80;99.90
33741;DHT22;20065;48.380;10.892;2023-02-13T00:15:59;2.70;99.90
33741;DHT22;20065;48.380;10.892;2023-02-13T00:18:46;2.70;99.90
33741;DHT22;20065;48.380;10.892;2023-02-13T00:21:33;2.70;99.90
33741;DHT22;20065;48.380;10.892;2023-02-13T00:24:19;2.70;99.90
33741;DHT22;20065;48.380;10.892;2023-02-13T00:27:06;2.70;99.90
33741;DHT22;20065;48.380;10.892;2023-02-13T00:29:56;2.70;99.90
33741;DHT22;20065;48.380;10.892;2023-02-13T00:32:42;2.70;99.90
33741;DHT22;20065;48.380;10.892;2023-02-13T00:35:28;2.70;99.90
33741;DHT22;20065;48.380;10.892;2023-02-13T00:38:14;2.70;99.90
33741;DHT22;20065;48.380;10.892;2023-02-13T00:41:00;2.70;99.90
33741;DHT22;20065;48.380;10.892;2023-02-13T00:43:47;2.60;99.90
33741;DHT22;20065;48.380;10.892;2023-02-13T00:46:34;2.60;99.90
33741;DHT22;20065;48.380;10.892;2023-02-13T00:49:20;2.60;99.90
33741;DHT22;20065;48.380;10.892;2023-02-13T00:52:07;2.50;99.90
33741;DHT22;20065;48.380;10.892;2023-02-13T00:54:53;2.40;99.90
33741;DHT22;20065;48.380;10.892;2023-02-13T00:57:42;2.40;99.90
33741;DHT22;20065;48.380;10.892;2023-02-13T01:00:31;2.40;99.90
33741;DHT22;20065;48.380;10.892;2023-02-13T01:03:19;2.40;99.90
33741;DHT22;20065;48.380;10.892;2023-02-13T01:06:08;2.50;99.90
33741;DHT22;20065;48.380;10.892;2023-02-13T01:08:55;2.40;99.90
33741;DHT22;20065;48.380;10.892;2023-02-13T01:11:41;2.40;99.90
33741;DHT22;20065;48.380;10.892;2023-02-13T01:14:28;2.40;99.90
33741;DHT22;20065;48.380;10.892;2023-02-13T01:17:15;2.40;99.90
33741;DHT22;20065;48.380;10.892;2023-02-13T01:20:01;2.50;99.90
33741;DHT22;20065;48.380;10.892;2023-02-13T01:22:47;2.40;99.90
33741;DHT22;20065;48.380;10.892;2023-02-13T01:25:41;2.40;99.90
33741;DHT22;20065;48.380;10.892;2023-02-13T01:28:28;2.50;99.90
33741;DHT22;20065;48.380;10.892;2023-02-13T01:31:14;2.50;99.90
33741;DHT22;20065;48.380;10.892;2023-02-13T01:34:01;2.50;99.90
33741;DHT22;20065;48.380;10.892;2023-02-13T01:36:48;2.50;99.90
33741;DHT22;20065;48.380;10.892;2023-02-13T01:39:34;2.50;99.90
33741;DHT22;20065;48.380;10.892;2023-02-13T01:42:32;2.50;99.90
33741;DHT22;20065;48.380;10.892;2023-02-13T01:45:29;2.50;99.90
33741;DHT22;20065;48.380;10.892;2023-02-13T01:48:16;2.50;99.90
33741;DHT22;20065;48.380;10.892;2023-02-13T01:51:12;2.40;99.90
33741;DHT22;20065;48.380;10.892;2023-02-13T01:54:06;2.30;99.90
33741;DHT22;20065;48.380;10.892;2023-02-13T02:00:15;2.10;99.90
33741;DHT22;20065;48.380;10.892;2023-02-13T02:03:35;2.10;99.90
33741;DHT22;20065;48.380;10.892;2023-02-13T02:06:35;2.00;99.90
33741;DHT22;20065;48.380;10.892;2023-02-13T02:09:28;2.10;99.90
33741;DHT22;20065;48.380;10.892;2023-02-13T02:12:35;2.10;99.90
33741;DHT22;20065;48.380;10.892;2023-02-13T02:15:25;2.10;99.90
33741;DHT22;20065;48.380;10.892;2023-02-13T02:18:17;2.10;99.90
33741;DHT22;20065;48.380;10.892;2023-02-13T02:31:01;2.20;99.90
33741;DHT22;20065;48.380;10.892;2023-02-13T02:43:37;2.20;99.90
33741;DHT22;20065;48.380;10.892;2023-02-13T02:50:40;2.00;99.90
33741;DHT22;20065;48.380;10.892;2023-02-13T02:53:37;2.10;99.90
33741;DHT22;20065;48.380;10.892;2023-02-13T02:56:36;2.10;99.90
33741;DHT22;20065;48.380;10.892;2023-02-13T02:59:27;2.20;99.90
33741;DHT22;20065;48.380;10.892;2023-02-13T03:02:33;2.30;99.90
33741;DHT22;20065;48.380;10.892;2023-02-13T03:05:40;2.30;99.90
33741;DHT22;20065;48.380;10.892;2023-02-13T03:08:56;2.40;99.90
33741;DHT22;20065;48.380;10.892;2023-02-13T03:12:03;2.30;99.90
33741;DHT22;20065;48.380;10.892;2023-02-13T03:15:08;2.30;99.90
33741;DHT22;20065;48.380;10.892;2023-02-13T03:17:55;2.30;99.90
33741;DHT22;20065;48.380;10.892;2023-02-13T03:21:12;2.40;99.90
33741;DHT22;20065;48.380;10.892;2023-02-13T03:24:27;2.30;99.90
33741;DHT22;20065;48.380;10.892;2023-02-13T03:27:37;2.20;99.90
33741;DHT22;20065;48.380;10.892;2023-02-13T03:37:07;2.10;99.90
33741;DHT22;20065;48.380;10.892;2023-02-13T03:43:13;2.10;99.90
33741;DHT22;20065;48.380;10.892;2023-02-13T03:46:02;2.20;99.90
33741;DHT22;20065;48.380;10.892;2023-02-13T03:48:49;2.20;99.90
33741;DHT22;20065;48.380;10.892;2023-02-13T03:51:59;2.30;99.90
33741;DHT22;20065;48.380;10.892;2023-02-13T03:55:26;2.30;99.90
33741;DHT22;20065;48.380;10.892;2023-02-13T03:58:34;2.40;99.90
33741;DHT22;20065;48.380;10.892;2023-02-13T04:01:39;2.30;99.90
33741;DHT22;20065;48.380;10.892;2023-02-13T04:04:40;2.40;99.90
33741;DHT22;20065;48.380;10.892;2023-02-13T04:07:31;2.50;99.90
33741;DHT22;20065;48.380;10.892;2023-02-13T04:10:18;2.60;99.90
33741;DHT22;20065;48.380;10.892;2023-02-13T04:13:30;2.60;99.90
33741;DHT22;20065;48.380;10.892;2023-02-13T04:16:40;2.60;99.90
33741;DHT22;20065;48.380;10.892;2023-02-13T04:19:27;2.50;99.90
33741;DHT22;20065;48.380;10.892;2023-02-13T04:22:13;2.50;99.90
33741;DHT22;20065;48.380;10.892;2023-02-13T04:25:00;2.50;99.90
33741;DHT22;20065;48.380;10.892;2023-02-13T04:27:46;2.50;99.90
33741;DHT22;20065;48.380;10.892;2023-02-13T04:30:35;2.60;99.90
33741;DHT22;20065;48.380;10.892;2023-02-13T04:33:22;2.70;99.90
33741;DHT22;20065;48.380;10.892;2023-02-13T04:36:08;2.60;99.90
33741;DHT22;20065;48.380;10.892;2023-02-13T04:38:54;2.40;99.90
33741;DHT22;20065;48.380;10.892;2023-02-13T04:41:40;2.40;99.90
33741;DHT22;20065;48.380;10.892;2023-02-13T04:44:26;2.40;99.90
33741;DHT22;20065;48.380;10.892;2023-02-13T04:47:12;2.40;99.90
33741;DHT22;20065;48.380;10.892;2023-02-13T04:49:59;2.50;99.90
33741;DHT22;20065;48.380;10.892;2023-02-13T04:52:45;2.60;99.90
33741;DHT22;20065;48.380;10.892;2023-02-13T04:55:32;2.60;99.90
33741;DHT22;20065;48.380;10.892;2023-02-13T04:58:18;2.60;99.90
33741;DHT22;20065;48.380;10.892;2023-02-13T05:01:12;2.60;99.90
33741;DHT22;20065;48.380;10.892;2023-02-13T05:03:58;2.50;99.90
33741;DHT22;20065;48.380;10.892;2023-02-13T05:06:54;2.40;99.90
33741;DHT22;20065;48.380;10.892;2023-02-13T05:09:40;2.40;99.90
33741;DHT22;20065;48.380;10.892;2023-02-13T05:12:26;2.30;99.90
33741;DHT22;20065;48.380;10.892;2023-02-13T05:15:12;2.30;99.90
33741;DHT22;20065;48.380;10.892;2023-02-13T05:17:58;2.40;99.90
33741;DHT22;20065;48.380;10.892;2023-02-13T05:20:45;2.50;99.90
33741;DHT22;20065;48.380;10.892;2023-02-13T05:23:51;2.40;99.90
33741;DHT22;20065;48.380;10.892;2023-02-13T05:26:37;2.40;99.90
33741;DHT22;20065;48.380;10.892;2023-02-13T05:29:23;2.40;99.90
33741;DHT22;20065;48.380;10.892;2023-02-13T05:32:09;2.30;99.90
33741;DHT22;20065;48.380;10.892;2023-02-13T05:34:55;2.30;99.90
33741;DHT22;20065;48.380;10.892;2023-02-13T05:37:42;2.30;99.90
33741;DHT22;20065;48.380;10.892;2023-02-13T05:40:28;2.40;99.90
33741;DHT22;20065;48.380;10.892;2023-02-13T05:43:14;2.40;99.90
33741;DHT22;20065;48.380;10.892;2023-02-13T05:46:05;2.50;99.90
33741;DHT22;20065;48.380;10.892;2023-02-13T05:48:51;2.60;99.90
33741;DHT22;20065;48.380;10.892;2023-02-13T05:51:37;2.60;99.90
33741;DHT22;20065;48.380;10.892;2023-02-13T05:54:24;2.60;99.90
33741;DHT22;20065;48.380;10.892;2023-02-13T05:57:10;2.70;99.90
33741;DHT22;20065;48.380;10.892;2023-02-13T05:59:56;2.70;99.90
33741;DHT22;20065;48.380;10.892;2023-02-13T06:02:42;2.70;99.90
33741;DHT22;20065;48.380;10.892;2023-02-13T06:05:28;2.80;99.90
33741;DHT22;20065;48.380;10.892;2023-02-13T06:08:14;2.80;99.90
33741;DHT22;20065;48.380;10.892;2023-02-13T06:11:01;2.70;99.90
33741;DHT22;20065;48.380;10.892;2023-02-13T06:13:47;2.60;99.90
33741;DHT22;20065;48.380;10.892;2023-02-13T06:16:33;2.60;99.90
33741;DHT22;20065;48.380;10.892;2023-02-13T06:19:19;2.70;99.90
33741;DHT22;20065;48.380;10.892;2023-02-13T06:22:05;2.80;99.90
33741;DHT22;20065;48.380;10.892;2023-02-13T06:24:51;2.80;99.90
33741;DHT22;20065;48.380;10.892;2023-02-13T06:27:38;2.80;99.90
33741;DHT22;20065;48.380;10.892;2023-02-13T06:30:24;2.80;99.90
33741;DHT22;20065;48.380;10.892;2023-02-13T06:33:10;2.80;99.90
33741;DHT22;20065;48.380;10.892;2023-02-13T06:35:56;2.80;99.90
33741;DHT22;20065;48.380;10.892;2023-02-13T06:38:43;2.70;99.90
33741;DHT22;20065;48.380;10.892;2023-02-13T06:41:29;2.70;99.90
33741;DHT22;20065;48.380;10.892;2023-02-13T06:44:15;2.60;99.90
33741;DHT22;20065;48.380;10.892;2023-02-13T06:47:01;2.70;99.90
33741;DHT22;20065;48.380;10.892;2023-02-13T06:49:47;2.60;99.90
33741;DHT22;20065;48.380;10.892;2023-02-13T06:52:33;2.60;99.90
33741;DHT22;20065;48.380;10.892;2023-02-13T06:55:20;2.50;99.90
33741;DHT22;20065;48.380;10.892;2023-02-13T06:58:06;2.50;99.90
33741;DHT22;20065;48.380;10.892;2023-02-13T07:00:53;2.50;99.90
33741;DHT22;20065;48.380;10.892;2023-02-13T07:03:39;2.40;99.90
33741;DHT22;20065;48.380;10.892;2023-02-13T07:06:25;2.40;99.90
33741;DHT22;20065;48.380;10.892;2023-02-13T07:09:11;2.40;99.90
33741;DHT22;20065;48.380;10.892;2023-02-13T07:12:01;2.50;99.90
33741;DHT22;20065;48.380;10.892;2023-02-13T07:14:47;2.60;99.90
33741;DHT22;20065;48.380;10.892;2023-02-13T07:17:33;2.60;99.90
33741;DHT22;20065;48.380;10.892;2023-02-13T07:20:19;2.60;99.90
33741;DHT22;20065;48.380;10.892;2023-02-13T07:23:05;2.50;99.90
33741;DHT22;20065;48.380;10.892;2023-02-13T07:25:52;2.50;99.90
33741;DHT22;20065;48.380;10.892;2023-02-13T07:28:38;2.50;99.90
33741;DHT22;20065;48.380;10.892;2023-02-13T07:31:24;2.60;99.90
33741;DHT22;20065;48.380;10.892;2023-02-13T07:34:10;2.80;99.90
33741;DHT22;20065;48.380;10.892;2023-02-13T07:36:57;2.90;99.90
33741;DHT22;20065;48.380;10.892;2023-02-13T07:39:43;3.00;99.90
33741;DHT22;20065;48.380;10.892;2023-02-13T07:42:32;3.00;99.90
33741;DHT22;20065;48.380;10.892;2023-02-13T07:45:18;3.00;99.90
33741;DHT22;20065;48.380;10.892;2023-02-13T07:48:04;3.00;99.90
33741;DHT22;20065;48.380;10.892;2023-02-13T07:50:51;2.90;99.90
33741;DHT22;20065;48.380;10.892;2023-02-13T07:53:37;2.90;99.90
33741;DHT22;20065;48.380;10.892;2023-02-13T07:56:23;2.90;99.90
33741;DHT22;20065;48.380;10.892;2023-02-13T07:59:10;2.90;99.90
33741;DHT22;20065;48.380;10.892;2023-02-13T08:01:56;2.90;99.90
33741;DHT22;20065;48.380;10.892;2023-02-13T08:04:42;2.90;99.90
33741;DHT22;20065;48.380;10.892;2023-02-13T08:07:31;2.90;99.90
33741;DHT22;20065;48.380;10.892;2023-02-13T08:10:18;2.90;99.90
33741;DHT22;20065;48.380;10.892;2023-02-13T08:13:23;2.90;99.90
33741;DHT22;20065;48.380;10.892;2023-02-13T08:16:09;2.80;99.90
33741;DHT22;20065;48.380;10.892;2023-02-13T08:18:55;2.90;99.90
33741;DHT22;20065;48.380;10.892;2023-02-13T08:21:42;3.00;99.90
33741;DHT22;20065;48.380;10.892;2023-02-13T08:24:28;3.00;99.90
33741;DHT22;20065;48.380;10.892;2023-02-13T08:27:14;3.10;99.90
33741;DHT22;20065;48.380;10.892;2023-02-13T08:30:00;3.10;99.90
33741;DHT22;20065;48.380;10.892;2023-02-13T08:32:48;3.20;99.90
33741;DHT22;20065;48.380;10.892;2023-02-13T08:35:34;3.20;99.90
33741;DHT22;20065;48.380;10.892;2023-02-13T08:38:20;3.20;99.90
33741;DHT22;20065;48.380;10.892;2023-02-13T08:41:06;3.20;99.90
33741;DHT22;20065;48.380;10.892;2023-02-13T08:43:53;3.30;99.90
33741;DHT22;20065;48.380;10.892;2023-02-13T08:46:40;3.30;99.90
33741;DHT22;20065;48.380;10.892;2023-02-13T08:49:26;3.40;99.90
33741;DHT22;20065;48.380;10.892;2023-02-13T08:52:13;3.50;99.90
33741;DHT22;20065;48.380;10.892;2023-02-13T08:54:59;3.60;99.90
33741;DHT22;20065;48.380;10.892;2023-02-13T08:57:45;3.60;99.90
33741;DHT22;20065;48.380;10.892;2023-02-13T09:00:31;3.50;99.90
33741;DHT22;20065;48.380;10.892;2023-02-13T09:03:17;3.50;99.90
33741;DHT22;20065;48.380;10.892;2023-02-13T09:06:04;3.60;99.90
33741;DHT22;20065;48.380;10.892;2023-02-13T09:08:51;3.60;99.90
33741;DHT22;20065;48.380;10.892;2023-02-13T09:11:37;3.70;99.90
33741;DHT22;20065;48.380;10.892;2023-02-13T09:14:24;3.80;99.90
33741;DHT22;20065;48.380;10.892;2023-02-13T09:17:10;3.90;99.90
33741;DHT22;20065;48.380;10.892;2023-02-13T09:19:56;4.00;99.90
33741;DHT22;20065;48.380;10.892;2023-02-13T09:22:42;3.90;99.90
33741;DHT22;20065;48.380;10.892;2023-02-13T09:25:29;3.90;99.90
33741;DHT22;20065;48.380;10.892;2023-02-13T09:28:16;3.80;99.90
33741;DHT22;20065;48.380;10.892;2023-02-13T09:31:13;3.90;99.90
33741;DHT22;20065;48.380;10.892;2023-02-13T09:34:00;3.90;99.90
33741;DHT22;20065;48.380;10.892;2023-02-13T09:36:51;3.90;99.90
33741;DHT22;20065;48.380;10.892;2023-02-13T09:39:38;4.00;99.90
33741;DHT22;20065;48.380;10.892;2023-02-13T09:42:28;4.00;99.90
33741;DHT22;20065;48.380;10.892;2023-02-13T09:45:19;3.90;99.90
33741;DHT22;20065;48.380;10.892;2023-02-13T09:48:13;4.00;99.90
33741;DHT22;20065;48.380;10.892;2023-02-13T09:51:00;4.00;99.90
33741;DHT22;20065;48.380;10.892;2023-02-13T09:53:53;4.10;99.90
33741;DHT22;20065;48.380;10.892;2023-02-13T09:56:49;4.10;99.90
33741;DHT22;20065;48.380;10.892;2023-02-13T10:00:06;4.20;99.90
33741;DHT22;20065;48.380;10.892;2023-02-13T10:08:58;3.70;99.90
33741;DHT22;20065;48.380;10.892;2023-02-13T10:15:00;3.40;99.90
33741;DHT22;20065;48.380;10.892;2023-02-13T10:17:55;3.40;99.90
33741;DHT22;20065;48.380;10.892;2023-02-13T10:20:53;3.70;99.90
33741;DHT22;20065;48.380;10.892;2023-02-13T10:23:46;3.80;99.90
33741;DHT22;20065;48.380;10.892;2023-02-13T10:26:37;4.00;99.90
33741;DHT22;20065;48.380;10.892;2023-02-13T10:30:02;4.10;99.90
33741;DHT22;20065;48.380;10.892;2023-02-13T10:33:02;4.20;99.90
33741;DHT22;20065;48.380;10.892;2023-02-13T10:39:01;4.50;99.90
33741;DHT22;20065;48.380;10.892;2023-02-13T11:01:10;4.30;99.90
33741;DHT22;20065;48.380;10.892;2023-02-13T11:04:12;4.40;99.90
33741;DHT22;20065;48.380;10.892;2023-02-13T11:07:00;4.50;99.90
33741;DHT22;20065;48.380;10.892;2023-02-13T11:09:49;4.50;99.90
33741;DHT22;20065;48.380;10.892;2023-02-13T11:12:36;4.50;99.90
33741;DHT22;20065;48.380;10.892;2023-02-13T11:15:26;4.60;99.90
33741;DHT22;20065;48.380;10.892;2023-02-13T11:18:18;4.70;99.90
33741;DHT22;20065;48.380;10.892;2023-02-13T11:21:07;4.60;99.90
33741;DHT22;20065;48.380;10.892;2023-02-13T11:23:54;4.60;99.90
33741;DHT22;20065;48.380;10.892;2023-02-13T11:26:43;4.60;99.90
33741;DHT22;20065;48.380;10.892;2023-02-13T11:29:31;4.60;99.90
33741;DHT22;20065;48.380;10.892;2023-02-13T11:32:29;4.60;99.90
33741;DHT22;20065;48.380;10.892;2023-02-13T11:41:11;4.70;99.90
33741;DHT22;20065;48.380;10.892;2023-02-13T11:43:59;4.70;99.90
33741;DHT22;20065;48.380;10.892;2023-02-13T11:46:48;4.60;99.90
33741;DHT22;20065;48.380;10.892;2023-02-13T11:49:36;4.60;99.90
33741;DHT22;20065;48.380;10.892;2023-02-13T11:52:27;4.70;99.90
33741;DHT22;20065;48.380;10.892;2023-02-13T11:55:37;4.90;99.90
33741;DHT22;20065;48.380;10.892;2023-02-13T11:58:25;5.00;99.90
33741;DHT22;20065;48.380;10.892;2023-02-13T12:04:17;4.80;99.90
33741;DHT22;20065;48.380;10.892;2023-02-13T12:07:12;4.80;99.90
33741;DHT22;20065;48.380;10.892;2023-02-13T12:10:06;4.70;99.90
33741;DHT22;20065;48.380;10.892;2023-02-13T12:15:59;4.70;99.90
33741;DHT22;20065;48.380;10.892;2023-02-13T12:18:49;4.80;99.90
33741;DHT22;20065;48.380;10.892;2023-02-13T12:21:54;4.80;99.90
33741;DHT22;20065;48.380;10.892;2023-02-13T12:24:59;4.70;99.90
33741;DHT22;20065;48.380;10.892;2023-02-13T12:43:43;4.80;99.90
33741;DHT22;20065;48.380;10.892;2023-02-13T12:58:45;4.90;99.90
33741;DHT22;20065;48.380;10.892;2023-02-13T13:01:45;4.70;99.90
33741;DHT22;20065;48.380;10.892;2023-02-13T13:08:06;4.70;99.90
33741;DHT22;20065;48.380;10.892;2023-02-13T13:23:47;4.70;99.90
33741;DHT22;20065;48.380;10.892;2023-02-13T13:26:46;4.70;99.90
33741;DHT22;20065;48.380;10.892;2023-02-13T13:29:47;4.70;99.90
33741;DHT22;20065;48.380;10.892;2023-02-13T13:32:36;4.60;99.90
33741;DHT22;20065;48.380;10.892;2023-02-13T13:35:23;4.50;99.90
33741;DHT22;20065;48.380;10.892;2023-02-13T13:50:38;4.40;99.90
33741;DHT22;20065;48.380;10.892;2023-02-13T13:53:25;4.30;99.90
33741;DHT22;20065;48.380;10.892;2023-02-13T13:56:11;4.40;99.90
33741;DHT22;20065;48.380;10.892;2023-02-13T13:58:57;4.20;99.90
33741;DHT22;20065;48.380;10.892;2023-02-13T14:01:43;4.00;99.90
33741;DHT22;20065;48.380;10.892;2023-02-13T14:07:23;4.20;99.90
33741;DHT22;20065;48.380;10.892;2023-02-13T14:13:32;4.20;99.90
33741;DHT22;20065;48.380;10.892;2023-02-13T14:19:35;4.20;99.90
33741;DHT22;20065;48.380;10.892;2023-02-13T14:22:31;4.20;99.90
33741;DHT22;20065;48.380;10.892;2023-02-13T14:25:24;4.20;99.90
33741;DHT22;20065;48.380;10.892;2023-02-13T14:28:21;4.10;99.90
33741;DHT22;20065;48.380;10.892;2023-02-13T14:31:30;4.00;99.90
33741;DHT22;20065;48.380;10.892;2023-02-13T14:34:19;3.90;99.90
33741;DHT22;20065;48.380;10.892;2023-02-13T14:46:17;3.90;99.90
33741;DHT22;20065;48.380;10.892;2023-02-13T14:49:06;4.00;99.90
33741;DHT22;20065;48.380;10.892;2023-02-13T14:51:58;3.90;99.90
33741;DHT22;20065;48.380;10.892;2023-02-13T14:54:52;3.90;99.90
33741;DHT22;20065;48.380;10.892;2023-02-13T14:57:44;3.90;99.90
33741;DHT22;20065;48.380;10.892;2023-02-13T15:03:48;4.00;99.90
33741;DHT22;20065;48.380;10.892;2023-02-13T15:06:41;4.10;99.90
33741;DHT22;20065;48.380;10.892;2023-02-13T15:09:39;3.90;99.90
33741;DHT22;20065;48.380;10.892;2023-02-13T15:12:35;3.90;99.90
33741;DHT22;20065;48.380;10.892;2023-02-13T15:15:28;4.00;99.90
33741;DHT22;20065;48.380;10.892;2023-02-13T15:18:26;3.90;99.90
33741;DHT22;20065;48.380;10.892;2023-02-13T15:21:22;3.90;99.90
33741;DHT22;20065;48.380;10.892;2023-02-13T15:24:27;3.90;99.90
33741;DHT22;20065;48.380;10.892;2023-02-13T15:27:30;3.80;99.90
33741;DHT22;20065;48.380;10.892;2023-02-13T15:33:19;3.80;99.90
33741;DHT22;20065;48.380;10.892;2023-02-13T15:36:06;3.90;99.90
33741;DHT22;20065;48.380;10.892;2023-02-13T15:38:59;4.00;99.90
33741;DHT22;20065;48.380;10.892;2023-02-13T15:41:53;4.00;99.90
33741;DHT22;20065;48.380;10.892;2023-02-13T15:44:44;3.90;99.90
33741;DHT22;20065;48.380;10.892;2023-02-13T15:47:32;3.90;99.90
33741;DHT22;20065;48.380;10.892;2023-02-13T15:50:30;3.80;99.90
33741;DHT22;20065;48.380;10.892;2023-02-13T15:53:18;3.80;99.90
33741;DHT22;20065;48.380;10.892;2023-02-13T15:56:04;3.80;99.90
33741;DHT22;20065;48.380;10.892;2023-02-13T15:58:51;3.80;99.90
33741;DHT22;20065;48.380;10.892;2023-02-13T16:01:40;3.80;99.90
33741;DHT22;20065;48.380;10.892;2023-02-13T16:04:29;3.80;99.90
33741;DHT22;20065;48.380;10.892;2023-02-13T16:07:15;3.80;99.90
33741;DHT22;20065;48.380;10.892;2023-02-13T16:13:17;3.80;99.90
33741;DHT22;20065;48.380;10.892;2023-02-13T16:16:09;3.80;99.90
33741;DHT22;20065;48.380;10.892;2023-02-13T16:18:59;3.80;99.90
33741;DHT22;20065;48.380;10.892;2023-02-13T16:21:47;3.70;99.90
33741;DHT22;20065;48.380;10.892;2023-02-13T16:24:35;3.70;99.90
33741;DHT22;20065;48.380;10.892;2023-02-13T16:27:25;3.60;99.90
33741;DHT22;20065;48.380;10.892;2023-02-13T16:39:10;3.40;99.90
33741;DHT22;20065;48.380;10.892;2023-02-13T16:41:58;3.40;99.90
33741;DHT22;20065;48.380;10.892;2023-02-13T16:44:44;3.30;99.90
33741;DHT22;20065;48.380;10.892;2023-02-13T16:47:30;3.30;99.90
33741;DHT22;20065;48.380;10.892;2023-02-13T16:50:17;3.30;99.90
33741;DHT22;20065;48.380;10.892;2023-02-13T16:53:03;3.30;99.90
33741;DHT22;20065;48.380;10.892;2023-02-13T16:56:00;3.40;99.90
33741;DHT22;20065;48.380;10.892;2023-02-13T16:58:46;3.40;99.90
33741;DHT22;20065;48.380;10.892;2023-02-13T17:01:33;3.30;99.90
33741;DHT22;20065;48.380;10.892;2023-02-13T17:04:24;3.40;99.90
33741;DHT22;20065;48.380;10.892;2023-02-13T17:07:15;3.40;99.90
33741;DHT22;20065;48.380;10.892;2023-02-13T17:15:57;3.40;99.90
33741;DHT22;20065;48.380;10.892;2023-02-13T17:18:44;3.40;99.90
33741;DHT22;20065;48.380;10.892;2023-02-13T17:21:31;3.30;99.90
33741;DHT22;20065;48.380;10.892;2023-02-13T17:24:17;3.30;99.90
33741;DHT22;20065;48.380;10.892;2023-02-13T17:27:03;3.30;99.90
33741;DHT22;20065;48.380;10.892;2023-02-13T17:29:50;3.30;99.90
33741;DHT22;20065;48.380;10.892;2023-02-13T17:32:36;3.30;99.90
33741;DHT22;20065;48.380;10.892;2023-02-13T17:35:36;3.20;99.90
33741;DHT22;20065;48.380;10.892;2023-02-13T17:38:22;3.20;99.90
33741;DHT22;20065;48.380;10.892;2023-02-13T17:41:15;3.20;99.90
33741;DHT22;20065;48.380;10.892;2023-02-13T17:44:03;3.10;99.90
33741;DHT22;20065;48.380;10.892;2023-02-13T17:46:50;3.10;99.90
33741;DHT22;20065;48.380;10.892;2023-02-13T17:49:37;3.20;99.90
33741;DHT22;20065;48.380;10.892;2023-02-13T17:52:25;3.20;99.90
33741;DHT22;20065;48.380;10.892;2023-02-13T17:55:18;3.20;99.90
33741;DHT22;20065;48.380;10.892;2023-02-13T17:58:06;3.30;99.90
33741;DHT22;20065;48.380;10.892;2023-02-13T18:00:52;3.20;99.90
33741;DHT22;20065;48.380;10.892;2023-02-13T18:03:41;3.10;99.90
33741;DHT22;20065;48.380;10.892;2023-02-13T18:06:27;3.00;99.90
33741;DHT22;20065;48.380;10.892;2023-02-13T18:09:13;3.00;99.90
33741;DHT22;20065;48.380;10.892;2023-02-13T18:11:59;3.00;99.90
33741;DHT22;20065;48.380;10.892;2023-02-13T18:14:46;3.00;99.90
33741;DHT22;20065;48.380;10.892;2023-02-13T18:17:33;3.00;99.90
33741;DHT22;20065;48.380;10.892;2023-02-13T18:20:20;3.00;99.90
33741;DHT22;20065;48.380;10.892;2023-02-13T18:23:07;3.00;99.90
33741;DHT22;20065;48.380;10.892;2023-02-13T18:25:58;3.00;99.90
33741;DHT22;20065;48.380;10.892;2023-02-13T18:28:47;3.10;99.90
33741;DHT22;20065;48.380;10.892;2023-02-13T18:31:37;3.10;99.90
33741;DHT22;20065;48.380;10.892;2023-02-13T18:34:24;3.10;99.90
33741;DHT22;20065;48.380;10.892;2023-02-13T18:37:10;3.00;99.90
33741;DHT22;20065;48.380;10.892;2023-02-13T18:39:56;3.00;99.90
33741;DHT22;20065;48.380;10.892;2023-02-13T18:42:44;3.00;99.90
33741;DHT22;20065;48.380;10.892;2023-02-13T18:45:30;3.00;99.90
33741;DHT22;20065;48.380;10.892;2023-02-13T18:48:16;3.10;99.90
33741;DHT22;20065;48.380;10.892;2023-02-13T18:51:03;3.00;99.90
33741;DHT22;20065;48.380;10.892;2023-02-13T18:53:49;2.90;99.90
33741;DHT22;20065;48.380;10.892;2023-02-13T18:56:36;2.80;99.90
33741;DHT22;20065;48.380;10.892;2023-02-13T18:59:22;2.90;99.90
33741;DHT22;20065;48.380;10.892;2023-02-13T19:02:09;2.90;99.90
33741;DHT22;20065;48.380;10.892;2023-02-13T19:04:55;2.90;99.90
33741;DHT22;20065;48.380;10.892;2023-02-13T19:07:41;3.00;99.90
33741;DHT22;20065;48.380;10.892;2023-02-13T19:10:28;2.90;99.90
33741;DHT22;20065;48.380;10.892;2023-02-13T19:13:14;2.90;99.90
33741;DHT22;20065;48.380;10.892;2023-02-13T19:16:08;2.90;99.90
33741;DHT22;20065;48.380;10.892;2023-02-13T19:18:58;2.80;99.90
33741;DHT22;20065;48.380;10.892;2023-02-13T19:21:45;2.70;99.90
33741;DHT22;20065;48.380;10.892;2023-02-13T19:24:31;2.70;99.90
33741;DHT22;20065;48.380;10.892;2023-02-13T19:27:17;2.70;99.90
33741;DHT22;20065;48.380;10.892;2023-02-13T19:30:04;2.70;99.90
33741;DHT22;20065;48.380;10.892;2023-02-13T19:32:53;2.70;99.90
33741;DHT22;20065;48.380;10.892;2023-02-13T19:35:39;2.70;99.90
33741;DHT22;20065;48.380;10.892;2023-02-13T19:38:26;2.70;99.90
33741;DHT22;20065;48.380;10.892;2023-02-13T19:41:16;2.80;99.90
33741;DHT22;20065;48.380;10.892;2023-02-13T19:44:03;2.80;99.90
33741;DHT22;20065;48.380;10.892;2023-02-13T19:46:51;2.80;99.90
33741;DHT22;20065;48.380;10.892;2023-02-13T19:49:37;2.90;99.90
33741;DHT22;20065;48.380;10.892;2023-02-13T19:52:24;2.90;99.90
33741;DHT22;20065;48.380;10.892;2023-02-13T19:55:11;2.80;99.90
33741;DHT22;20065;48.380;10.892;2023-02-13T19:57:57;2.80;99.90
33741;DHT22;20065;48.380;10.892;2023-02-13T20:00:43;2.80;99.90
33741;DHT22;20065;48.380;10.892;2023-02-13T20:03:29;2.80;99.90
33741;DHT22;20065;48.380;10.892;2023-02-13T20:06:29;2.80;99.90
33741;DHT22;20065;48.380;10.892;2023-02-13T20:09:16;2.90;99.90
33741;DHT22;20065;48.380;10.892;2023-02-13T20:12:16;2.90;99.90
33741;DHT22;20065;48.380;10.892;2023-02-13T20:15:22;2.90;99.90
33741;DHT22;20065;48.380;10.892;2023-02-13T20:18:09;2.90;99.90
33741;DHT22;20065;48.380;10.892;2023-02-13T20:20:57;2.90;99.90
33741;DHT22;20065;48.380;10.892;2023-02-13T20:23:49;2.90;99.90
33741;DHT22;20065;48.380;10.892;2023-02-13T20:26:52;3.00;99.90
33741;DHT22;20065;48.380;10.892;2023-02-13T20:29:41;2.90;99.90
33741;DHT22;20065;48.380;10.892;2023-02-13T20:32:28;2.90;99.90
33741;DHT22;20065;48.380;10.892;2023-02-13T20:35:15;3.00;99.90
33741;DHT22;20065;48.380;10.892;2023-02-13T20:38:06;2.90;99.90
33741;DHT22;20065;48.380;10.892;2023-02-13T20:40:53;2.90;99.90
33741;DHT22;20065;48.380;10.892;2023-02-13T20:43:42;2.90;99.90
33741;DHT22;20065;48.380;10.892;2023-02-13T20:46:30;2.90;99.90
33741;DHT22;20065;48.380;10.892;2023-02-13T20:49:17;3.00;99.90
33741;DHT22;20065;48.380;10.892;2023-02-13T20:52:06;3.00;99.90
33741;DHT22;20065;48.380;10.892;2023-02-13T20:54:53;2.90;99.90